createdAt,value
2019-01-25T00:04:17.472Z,54.80
2019-01-25T00:08:23.221Z,53.90
2019-01-25T00:12:28.928Z,53.70
2019-01-25T00:16:34.614Z,61.90
2019-01-25T00:20:40.374Z,57.20
2019-01-25T00:24:46.069Z,59.30
2019-01-25T00:28:51.839Z,62.90
2019-01-25T00:32:57.528Z,61.90
2019-01-25T00:37:03.311Z,69.50
2019-01-25T00:41:09.001Z,58.10
2019-01-25T00:45:15.853Z,63.10
2019-01-25T00:49:21.515Z,57.30
2019-01-25T00:53:27.280Z,59.50
2019-01-25T00:57:33.018Z,67.90
2019-01-25T01:01:38.876Z,58.20
2019-01-25T01:05:45.335Z,63.20
2019-01-25T01:09:51.080Z,65.40
2019-01-25T01:13:56.767Z,57.20
2019-01-25T01:18:02.473Z,58.00
2019-01-25T01:22:08.394Z,57.10
2019-01-25T01:26:14.080Z,58.20
2019-01-25T01:30:22.546Z,56.20
2019-01-25T01:34:28.243Z,56.70
2019-01-25T01:38:33.969Z,57.60
2019-01-25T01:42:39.772Z,56.80
2019-01-25T01:46:45.519Z,54.00
2019-01-25T01:50:51.210Z,54.70
2019-01-25T01:54:57.059Z,55.50
2019-01-25T01:59:02.749Z,61.20
2019-01-25T02:03:08.509Z,65.60
2019-01-25T02:07:14.285Z,66.60
2019-01-25T02:11:20.090Z,67.60
2019-01-25T02:15:26.339Z,67.60
2019-01-25T02:19:32.029Z,56.50
2019-01-25T02:23:37.705Z,64.60
2019-01-25T02:27:43.652Z,60.00
2019-01-25T02:31:50.479Z,64.50
2019-01-25T02:35:56.177Z,64.00
2019-01-25T02:40:01.860Z,64.20
2019-01-25T02:44:08.564Z,70.60
2019-01-25T02:48:14.499Z,61.70
2019-01-25T02:52:20.195Z,64.30
2019-01-25T02:56:25.929Z,66.90
2019-01-25T03:00:31.752Z,67.30
2019-01-25T03:04:37.430Z,67.40
2019-01-25T03:08:43.124Z,61.20
2019-01-25T03:12:49.155Z,60.30
2019-01-25T03:16:56.302Z,63.20
2019-01-25T03:21:02.005Z,67.70
2019-01-25T03:25:12.358Z,62.70
2019-01-25T03:29:18.047Z,63.40
2019-01-25T03:33:23.748Z,56.80
2019-01-25T03:37:29.436Z,63.40
2019-01-25T03:41:35.115Z,60.30
2019-01-25T03:45:40.810Z,59.80
2019-01-25T03:49:46.498Z,57.40
2019-01-25T03:53:52.193Z,57.10
2019-01-25T03:57:57.972Z,58.90
2019-01-25T04:02:04.002Z,57.60
2019-01-25T04:06:09.796Z,68.60
2019-01-25T04:10:29.218Z,59.50
2019-01-25T04:14:34.910Z,69.20
2019-01-25T04:18:40.599Z,60.10
2019-01-25T04:22:46.479Z,59.70
2019-01-25T04:26:52.174Z,59.20
2019-01-25T04:30:57.962Z,64.90
2019-01-25T04:35:04.753Z,62.20
2019-01-25T04:39:10.751Z,60.70
2019-01-25T04:43:16.430Z,58.80
2019-01-25T04:47:25.196Z,58.60
2019-01-25T04:51:30.888Z,64.50
2019-01-25T04:55:36.642Z,54.60
2019-01-25T04:59:42.336Z,64.20
2019-01-25T05:03:48.032Z,60.90
2019-01-25T05:08:01.013Z,65.50
2019-01-25T05:12:06.914Z,75.50
2019-01-25T05:16:16.833Z,61.50
2019-01-25T05:20:22.734Z,66.10
2019-01-25T05:24:28.396Z,68.70
2019-01-25T05:28:34.081Z,64.30
2019-01-25T05:32:39.781Z,60.40
2019-01-25T05:36:45.484Z,64.60
2019-01-25T05:40:51.225Z,62.20
2019-01-25T05:44:56.918Z,70.20
2019-01-25T05:49:02.624Z,66.00
2019-01-25T05:53:08.519Z,61.00
2019-01-25T05:57:14.200Z,56.30
2019-01-25T06:01:19.961Z,62.30
2019-01-25T06:05:25.665Z,57.10
2019-01-25T06:09:31.426Z,68.00
2019-01-25T06:13:37.326Z,69.70
2019-01-25T06:17:43.031Z,58.90
2019-01-25T06:21:48.797Z,51.90
2019-01-25T06:25:57.562Z,58.70
2019-01-25T06:30:05.799Z,57.10
2019-01-25T06:34:11.490Z,55.60
2019-01-25T06:38:17.241Z,58.00
2019-01-25T06:42:22.967Z,62.70
2019-01-25T06:46:28.696Z,55.00
2019-01-25T06:50:34.408Z,58.60
2019-01-25T06:54:40.085Z,59.60
2019-01-25T06:58:53.240Z,60.00
2019-01-25T07:02:58.927Z,66.90
2019-01-25T07:07:06.326Z,66.30
2019-01-25T07:11:12.182Z,72.90
2019-01-25T07:15:19.647Z,69.00
2019-01-25T07:19:25.329Z,72.70
2019-01-25T07:23:31.035Z,66.60
2019-01-25T07:27:36.735Z,62.40
2019-01-25T07:31:42.449Z,63.80
2019-01-25T07:35:48.182Z,66.50
2019-01-25T07:39:53.983Z,65.80
2019-01-25T07:44:00.157Z,66.80
2019-01-25T07:48:06.227Z,68.60
2019-01-25T07:52:12.094Z,63.60
2019-01-25T07:56:17.809Z,72.20
2019-01-25T08:00:23.566Z,56.80
2019-01-25T08:04:29.252Z,60.10
2019-01-25T08:08:34.993Z,60.60
2019-01-25T08:12:40.821Z,63.80
2019-01-25T08:16:46.502Z,61.20
2019-01-25T08:20:52.229Z,56.20
2019-01-25T08:24:57.960Z,54.60
2019-01-25T08:29:03.841Z,55.50
2019-01-25T08:33:09.809Z,56.80
2019-01-25T08:37:15.507Z,56.60
2019-01-25T08:41:21.367Z,57.60
2019-01-25T08:45:27.053Z,57.80
2019-01-25T08:49:32.750Z,66.60
2019-01-25T08:53:38.438Z,68.10
2019-01-25T08:57:44.378Z,64.70
2019-01-25T09:01:51.066Z,57.00
2019-01-25T09:05:56.767Z,66.40
2019-01-25T09:10:02.463Z,57.20
2019-01-25T09:14:08.129Z,54.30
2019-01-25T09:18:13.961Z,50.40
2019-01-25T09:22:19.649Z,54.00
2019-01-25T09:26:25.354Z,60.40
2019-01-25T09:30:31.121Z,59.80
2019-01-25T09:34:36.814Z,53.90
2019-01-25T09:38:42.515Z,49.10
2019-01-25T09:42:48.250Z,54.10
2019-01-25T09:46:54.011Z,56.80
2019-01-25T09:50:59.785Z,49.70
2019-01-25T09:55:11.236Z,48.60
2019-01-25T09:59:16.938Z,52.80
2019-01-25T10:07:44.281Z,49.70
2019-01-25T10:11:49.971Z,49.10
2019-01-25T10:15:55.684Z,48.90
2019-01-25T10:20:01.361Z,50.00
2019-01-25T10:24:07.128Z,53.50
2019-01-25T10:28:12.817Z,50.40
2019-01-25T10:32:18.580Z,48.10
2019-01-25T10:36:24.277Z,47.30
2019-01-25T10:40:29.951Z,49.50
2019-01-25T10:44:35.707Z,50.50
2019-01-25T10:48:43.128Z,47.50
2019-01-25T10:52:48.926Z,52.80
2019-01-25T10:56:54.685Z,50.20
2019-01-25T11:01:00.370Z,52.60
2019-01-25T11:05:12.364Z,55.50
2019-01-25T11:09:18.050Z,48.50
2019-01-25T11:13:23.747Z,58.10
2019-01-25T11:17:36.254Z,53.70
2019-01-25T11:21:37.619Z,53.50
2019-01-25T11:25:43.810Z,54.80
2019-01-25T11:29:49.489Z,56.70
2019-01-25T11:33:55.531Z,55.50
2019-01-25T11:38:01.240Z,51.20
2019-01-25T11:42:07.029Z,53.90
2019-01-25T11:46:12.793Z,46.10
2019-01-25T11:50:21.362Z,36.10
2019-01-25T11:54:27.072Z,35.40
2019-01-25T11:58:32.766Z,33.70
2019-01-25T12:02:38.476Z,34.20
2019-01-25T12:06:44.189Z,33.90
2019-01-25T12:10:49.971Z,38.90
2019-01-25T12:14:55.658Z,44.50
2019-01-25T12:19:37.529Z,45.30
2019-01-25T12:23:43.210Z,44.60
2019-01-25T12:27:49.018Z,47.00
2019-01-25T12:31:54.728Z,47.90
2019-01-25T12:36:00.409Z,45.20
2019-01-25T12:40:14.557Z,49.20
2019-01-25T12:44:20.318Z,44.90
2019-01-25T12:48:26.078Z,44.80
2019-01-25T12:52:31.869Z,50.50
2019-01-25T12:56:37.638Z,49.80
2019-01-25T13:00:43.395Z,49.60
2019-01-25T13:04:49.110Z,52.70
2019-01-25T13:08:54.795Z,49.90
2019-01-25T13:13:00.576Z,48.10
2019-01-25T13:17:18.169Z,52.00
2019-01-25T13:21:23.842Z,48.20
2019-01-25T13:25:29.537Z,52.50
2019-01-25T13:29:35.223Z,50.80
2019-01-25T13:33:40.994Z,58.80
2019-01-25T13:38:16.966Z,53.90
2019-01-25T13:42:22.783Z,55.20
2019-01-25T13:46:28.465Z,57.90
2019-01-25T13:50:34.309Z,50.20
2019-01-25T13:54:40.013Z,50.80
2019-01-25T13:58:45.684Z,54.10
2019-01-25T14:02:51.353Z,55.00
2019-01-25T14:06:57.052Z,50.40
2019-01-25T14:11:02.788Z,53.20
2019-01-25T14:15:10.010Z,52.80
2019-01-25T14:19:15.701Z,56.80
2019-01-25T14:23:21.370Z,51.40
2019-01-25T14:27:27.100Z,50.60
2019-01-25T14:31:32.831Z,53.60
2019-01-25T14:35:38.549Z,57.80
2019-01-25T14:39:44.230Z,56.40
2019-01-25T14:43:54.462Z,52.30
2019-01-25T14:47:57.541Z,57.00
2019-01-25T14:52:03.282Z,56.80
2019-01-25T14:56:09.141Z,55.80
2019-01-25T15:00:16.123Z,57.70
2019-01-25T15:04:21.805Z,55.90
2019-01-25T15:08:27.515Z,56.40
2019-01-25T15:12:33.205Z,56.20
2019-01-25T15:16:38.978Z,59.30
2019-01-25T15:20:45.626Z,56.00
2019-01-25T15:24:51.313Z,57.50
2019-01-25T15:28:56.998Z,58.50
2019-01-25T15:33:02.750Z,53.60
2019-01-25T15:37:08.515Z,58.00
2019-01-25T15:41:14.545Z,56.10
2019-01-25T15:45:22.261Z,53.60
2019-01-25T15:49:27.930Z,58.50
2019-01-25T15:53:33.628Z,55.10
2019-01-25T15:57:39.390Z,55.80
2019-01-25T16:01:45.084Z,61.00
2019-01-25T16:05:50.781Z,55.10
2019-01-25T16:09:56.465Z,62.80
2019-01-25T16:14:02.155Z,60.00
2019-01-25T16:18:07.837Z,60.20
2019-01-25T16:22:13.613Z,58.80
2019-01-25T16:26:19.319Z,60.60
2019-01-25T16:30:31.021Z,61.30
2019-01-25T16:34:36.804Z,53.20
2019-01-25T16:38:42.493Z,52.00
2019-01-25T16:42:48.189Z,51.50
2019-01-25T16:46:53.905Z,53.40
2019-01-25T16:50:59.683Z,54.60
2019-01-25T16:55:11.370Z,56.40
2019-01-25T16:59:17.066Z,57.40
2019-01-25T17:03:22.794Z,56.20
2019-01-25T17:07:28.495Z,57.70
2019-01-25T17:11:34.181Z,58.70
2019-01-25T17:15:39.991Z,57.70
2019-01-25T17:19:45.703Z,57.70
2019-01-25T17:23:51.390Z,57.90
2019-01-25T17:27:57.096Z,57.90
2019-01-25T17:32:02.846Z,57.20
2019-01-25T17:36:08.596Z,57.70
2019-01-25T17:40:24.292Z,58.70
2019-01-25T17:44:29.994Z,59.40
2019-01-25T17:48:35.798Z,59.40
2019-01-25T17:52:41.669Z,60.30
2019-01-25T17:56:47.359Z,59.10
2019-01-25T18:00:54.363Z,60.70
2019-01-25T18:05:00.187Z,60.40
2019-01-25T18:09:08.530Z,60.50
2019-01-25T18:13:14.291Z,59.60
2019-01-25T18:17:19.965Z,59.50
2019-01-25T18:21:25.802Z,59.90
2019-01-25T18:25:45.249Z,60.40
2019-01-25T18:29:50.950Z,59.70
2019-01-25T18:33:56.646Z,60.30
2019-01-25T18:38:02.332Z,60.60
2019-01-25T18:42:08.182Z,60.00
2019-01-25T18:46:14.016Z,60.20
2019-01-25T18:50:19.963Z,59.60
2019-01-25T18:54:25.719Z,59.80
2019-01-25T18:58:31.415Z,60.00
2019-01-25T19:02:38.014Z,59.40
2019-01-25T19:06:43.751Z,56.50
2019-01-25T19:10:49.566Z,56.20
2019-01-25T19:14:55.325Z,57.50
2019-01-25T19:19:00.994Z,57.10
2019-01-25T19:23:10.424Z,57.00
2019-01-25T19:27:16.119Z,57.00
2019-01-25T19:31:22.017Z,56.90
2019-01-25T19:35:27.898Z,56.60
2019-01-25T19:39:33.645Z,56.80
2019-01-25T19:43:39.401Z,56.20
2019-01-25T19:47:45.170Z,56.10
2019-01-25T19:51:51.088Z,55.70
2019-01-25T19:55:56.858Z,56.10
2019-01-25T20:00:02.619Z,56.70
2019-01-25T20:04:08.565Z,56.40
2019-01-25T20:08:14.388Z,56.70
2019-01-25T20:12:20.157Z,55.80
2019-01-25T20:16:25.998Z,56.10
2019-01-25T20:20:37.856Z,55.50
2019-01-25T20:24:43.548Z,55.80
2019-01-25T20:28:50.051Z,55.40
2019-01-25T20:32:55.822Z,55.40
2019-01-25T20:37:02.699Z,54.80
2019-01-25T20:41:08.421Z,54.80
2019-01-25T20:45:27.104Z,54.90
2019-01-25T20:55:22.960Z,54.20
2019-01-25T21:00:18.696Z,54.00
2019-01-25T21:04:24.368Z,54.90
2019-01-25T21:08:30.832Z,54.60
2019-01-25T21:12:36.595Z,54.20
2019-01-25T21:16:42.277Z,54.50
2019-01-25T21:20:48.320Z,53.90
2019-01-25T21:24:53.990Z,52.90
2019-01-25T21:28:59.699Z,53.60
2019-01-25T21:33:06.702Z,52.70
2019-01-25T21:37:13.432Z,53.40
2019-01-25T21:41:19.097Z,54.00
2019-01-25T21:45:28.792Z,52.50
2019-01-25T21:49:34.480Z,53.10
2019-01-25T21:53:40.168Z,51.70
2019-01-25T21:58:24.623Z,53.50
2019-01-25T22:02:48.105Z,54.40
2019-01-25T22:07:17.650Z,54.30
2019-01-25T22:11:23.347Z,54.00
2019-01-25T22:15:29.121Z,53.50
2019-01-25T22:19:34.807Z,53.30
2019-01-25T22:23:40.562Z,53.40
2019-01-25T22:28:19.067Z,54.50
2019-01-25T22:32:24.787Z,55.00
2019-01-25T22:36:30.487Z,55.40
2019-01-25T22:40:36.257Z,55.70
2019-01-25T22:44:41.949Z,56.00
2019-01-25T22:48:47.694Z,55.60
2019-01-25T22:52:53.527Z,55.20
2019-01-25T22:57:17.125Z,54.60
2019-01-25T23:01:25.738Z,53.40
2019-01-25T23:05:53.561Z,52.70
2019-01-25T23:10:17.461Z,52.50
2019-01-25T23:14:23.224Z,51.70
2019-01-25T23:18:28.918Z,55.30
2019-01-25T23:22:34.684Z,56.40
2019-01-25T23:26:40.387Z,59.10
2019-01-25T23:30:46.036Z,58.80
2019-01-25T23:34:51.735Z,60.10
2019-01-25T23:38:57.498Z,61.10
2019-01-25T23:43:03.213Z,60.30
2019-01-25T23:47:08.885Z,59.70
2019-01-25T23:51:15.540Z,60.10
2019-01-25T23:55:21.362Z,58.70
2019-01-25T23:59:27.165Z,58.00
